x

Sand Key, Fl (sanf1) Weather Station

11:50am - Tue 3rd Mar 2015 All times are CST. -5 hours from GMT.

  • Wind
    16mph, 20mph gusts
  • Air Temp 75°f
  • Sea Pressure 1021.7mb
  • Sand Key, Fl
  • Sand Key, Fl

More Historic Weather Station data

Upgrade to MSW Pro to gain access to the past 30 days of data for over 8000 Wavebouys and Weather Stations around the globe.

Join Pro

Comparision Forecast

View Surf forecast
   
Tue 03/03 11:50am 16 20 mph 1021.7mb 75f
10:50am 17 20 mph 1022mb 75f
9:50am 18 21 mph 1022.1mb 75f
8:50am 18 22 mph 1021.7mb 75f
7:50am 18 22 mph 1021mb 75f
6:50am 18 21 mph 1020.2mb 75f
5:50am 18 21 mph 1020mb 74f
4:50am 21 22 mph 1019.5mb 74f
3:50am 21 23 mph 1019.6mb 74f
2:50am 22 24 mph 1019.9mb 74f
1:50am 18 22 mph 1020.6mb 74f
12:50am 18 22 mph 1021.3mb 74f
Mon 03/02 11:50pm 18 21 mph 1021.9mb 74f
10:50pm 18 21 mph 1022.4mb 74f
9:50pm 20 22 mph 1022.4mb 74f
8:50pm 18 21 mph 1022.4mb 74f
7:50pm 16 17 mph 1021.9mb 74f
6:50pm 16 17 mph 1021.4mb 75f
5:50pm 14 16 mph 1021.1mb 75f
4:50pm 21 25 mph 1020.9mb 76f
3:50pm 15 16 mph 1021mb 75f
2:50pm 14 16 mph 1021.4mb 75f
1:50pm 14 16 mph 1022.1mb 75f
12:50pm 15 17 mph 1023mb 75f
11:50am 15 18 mph 1024mb 75f
10:50am 16 18 mph 1024.4mb 75f
9:50am 16 20 mph 1024.5mb 75f
8:50am 15 17 mph 1024.2mb 75f
7:50am 15 17 mph 1023.9mb 74f
6:50am 14 17 mph 1023.5mb 74f
5:50am 15 16 mph 1022.7mb 74f
4:50am 15 16 mph 1022.3mb 74f
3:50am 14 16 mph 1022.4mb 75f
2:50am 17 20 mph 1022.6mb 74f
1:50am 14 15 mph 1023.2mb 74f
12:50am 18 22 mph 1023.8mb 75f
Sun 03/01 11:50pm 20 22 mph 1024.3mb 75f
10:50pm 20 24 mph 1024.4mb 75f
9:50pm 22 25 mph 1024.4mb 75f
8:50pm 21 24 mph 1023.9mb 75f
7:50pm 18 21 mph 1023.4mb 75f
6:50pm 17 20 mph 1023.1mb 75f
5:50pm 20 22 mph 1023mb 75f
4:50pm 15 17 mph 1022.7mb 75f
3:50pm 14 15 mph 1022.6mb 75f
2:50pm 14 15 mph 1023mb 75f
1:50pm 14 15 mph 1023.5mb 75f
12:50pm 14 16 mph 1024.2mb 75f
11:50am 15 17 mph 1025.2mb 75f
10:50am 16 20 mph 1025.4mb 75f
9:50am 20 22 mph 1025.2mb 75f
8:50am 20 23 mph 1025mb 75f
7:50am 18 21 mph 1024.4mb 75f
6:50am 20 22 mph 1023.8mb 74f
5:50am 18 22 mph 1023.2mb 74f
4:50am 17 20 mph 1022.8mb 74f
3:50am 20 23 mph 1022.8mb 74f
2:50am 17 20 mph 1022.9mb 74f
1:50am 18 21 mph 1023.1mb 74f
12:50am 18 22 mph 1023.6mb 74f
Sat 02/28 11:50pm 18 21 mph 1023.9mb 74f
10:50pm 18 23 mph 1024mb 75f
9:50pm 16 18 mph 1023.8mb 75f
8:50pm 17 20 mph 1023.2mb 75f
7:50pm 15 17 mph 1022.6mb 75f
6:50pm 15 16 mph 1022.1mb 75f
5:50pm 11 14 mph 1021.8mb 75f
4:50pm 10 11 mph 1021.4mb 75f
3:50pm 9 10 mph 1021.4mb 75f
2:50pm 10 11 mph 1021.7mb 75f
1:50pm 9 10 mph 1022.4mb 75f
12:50pm 10 11 mph 1023.2mb 75f
11:50am 10 11 mph 1023.7mb 74f
10:50am 7 11 mph 1024.3mb 75f
9:50am 11 14 mph 1023.6mb 75f
8:50am 15 17 mph 1022.8mb 74f
7:50am 13 14 mph 1022.2mb 74f
6:50am 14 15 mph 1021.3mb 73f
5:50am 14 15 mph 1020.6mb 72f
4:50am 14 16 mph 1020.2mb 72f
3:50am 14 16 mph 1020.1mb 71f
2:50am 15 17 mph 1020.1mb 71f
1:50am 15 17 mph 1020mb 71f
12:50am 18 21 mph 1020.1mb 72f
Fri 02/27 11:50pm 18 21 mph 1020.4mb 72f
10:50pm 21 23 mph 1020.7mb 72f
9:50pm 20 22 mph 1020.7mb 71f
8:50pm 21 24 mph 1020.5mb 69f
7:50pm 25 29 mph 1019.6mb 68f
6:50pm 23 28 mph 1018.8mb 68f
5:50pm 22 24 mph 1018.3mb 68f